Mendon - 24 Hour Table
Date & TimeSolar
Radiation
(W/m²)
Wind
Speed
(mph)
Wind
Direction
(degrees)
Air
Temperature
(°F)
Relative
Humidity
(%)
Precipitation
(inches)
2021/06/14 04:00 2 0.0 307 52.5 54 0.00
2021/06/14 03:00 2 0.0 295 54.6 50 0.00
2021/06/14 02:00 2 0.0 303 56.2 45 0.00
2021/06/14 01:00 2 0.0 312 58.2 40 0.00
2021/06/14 00:00 2 0.0 306 60.4 39 0.00
2021/06/13 23:00 3 0.0 307 62.9 36 0.00
2021/06/13 22:00 3 0.0 270 66.4 34 0.00
2021/06/13 21:00 4 0.0 12 71.3 27 0.00
2021/06/13 20:00 23 0.0 318 75.1 26 0.00
2021/06/13 19:00 57 0.0 168 82.2 26 0.00
2021/06/13 18:00 87 0.0 155 88.1 21 0.00
2021/06/13 17:00 121 0.0 126 90.8 17 0.00
2021/06/13 16:00 144 0.0 110 94.2 9 0.00
2021/06/13 15:00 682 0.0 155 95.7 8 0.00
2021/06/13 14:00 1094 0.2 150 94.4 10 0.00
2021/06/13 13:00 1124 0.0 314 89.5 16 0.00
2021/06/13 12:00 1117 0.0 228 83.7 22 0.00
2021/06/13 11:00 1043 0.0 115 78.2 28 0.00
2021/06/13 10:00 913 0.0 109 72.0 33 0.00
2021/06/13 09:00 395 0.0 155 65.3 39 0.00
2021/06/13 08:00 60 0.0 151 60.2 50 0.00
2021/06/13 07:00 33 0.0 347 52.5 52 0.00
2021/06/13 06:00 14 0.0 295 47.7 66 0.00
2021/06/13 05:00 2 0.0 323 47.1 63 0.00